sensor_id;sensor_type;location;lat;lon;timestamp;P1;durP1;ratioP1;P2;durP2;ratioP2
79076;SDS011;68477;42.698;23.342;2024-03-08T00:02:16;5.78;;;3.10;;
79076;SDS011;68477;42.698;23.342;2024-03-08T00:04:41;4.40;;;3.00;;
79076;SDS011;68477;42.698;23.342;2024-03-08T00:07:08;5.53;;;2.83;;
79076;SDS011;68477;42.698;23.342;2024-03-08T00:09:33;4.28;;;3.15;;
79076;SDS011;68477;42.698;23.342;2024-03-08T00:11:59;5.57;;;2.95;;
79076;SDS011;68477;42.698;23.342;2024-03-08T00:14:25;5.78;;;2.88;;
79076;SDS011;68477;42.698;23.342;2024-03-08T00:16:50;5.97;;;3.55;;
79076;SDS011;68477;42.698;23.342;2024-03-08T00:19:17;6.07;;;3.15;;
79076;SDS011;68477;42.698;23.342;2024-03-08T00:21:43;4.13;;;2.70;;
79076;SDS011;68477;42.698;23.342;2024-03-08T00:24:10;4.18;;;2.97;;
79076;SDS011;68477;42.698;23.342;2024-03-08T00:26:35;4.60;;;2.72;;
79076;SDS011;68477;42.698;23.342;2024-03-08T00:29:01;3.78;;;2.60;;
79076;SDS011;68477;42.698;23.342;2024-03-08T00:31:26;4.22;;;2.42;;
79076;SDS011;68477;42.698;23.342;2024-03-08T00:33:53;4.18;;;2.15;;
79076;SDS011;68477;42.698;23.342;2024-03-08T00:36:18;2.55;;;2.00;;
79076;SDS011;68477;42.698;23.342;2024-03-08T00:38:45;3.63;;;2.10;;
79076;SDS011;68477;42.698;23.342;2024-03-08T00:41:10;3.47;;;2.10;;
79076;SDS011;68477;42.698;23.342;2024-03-08T00:43:36;2.75;;;1.70;;
79076;SDS011;68477;42.698;23.342;2024-03-08T00:46:01;2.78;;;1.73;;
79076;SDS011;68477;42.698;23.342;2024-03-08T00:48:27;2.92;;;1.75;;
79076;SDS011;68477;42.698;23.342;2024-03-08T00:50:52;2.65;;;1.73;;
79076;SDS011;68477;42.698;23.342;2024-03-08T00:53:18;2.60;;;1.80;;
79076;SDS011;68477;42.698;23.342;2024-03-08T00:55:43;3.40;;;2.00;;
79076;SDS011;68477;42.698;23.342;2024-03-08T00:58:11;2.63;;;1.83;;
79076;SDS011;68477;42.698;23.342;2024-03-08T01:00:37;3.25;;;1.88;;
79076;SDS011;68477;42.698;23.342;2024-03-08T01:03:04;2.80;;;1.90;;
79076;SDS011;68477;42.698;23.342;2024-03-08T01:05:30;3.03;;;1.83;;
79076;SDS011;68477;42.698;23.342;2024-03-08T01:07:55;3.08;;;2.03;;
79076;SDS011;68477;42.698;23.342;2024-03-08T01:10:21;4.68;;;1.83;;
79076;SDS011;68477;42.698;23.342;2024-03-08T01:12:46;2.67;;;1.70;;
79076;SDS011;68477;42.698;23.342;2024-03-08T01:15:12;2.85;;;1.92;;
79076;SDS011;68477;42.698;23.342;2024-03-08T01:17:37;2.95;;;1.90;;
79076;SDS011;68477;42.698;23.342;2024-03-08T01:20:04;3.50;;;2.00;;
79076;SDS011;68477;42.698;23.342;2024-03-08T01:22:30;2.63;;;1.88;;
79076;SDS011;68477;42.698;23.342;2024-03-08T01:24:56;3.35;;;2.10;;
79076;SDS011;68477;42.698;23.342;2024-03-08T01:27:22;2.72;;;1.70;;
79076;SDS011;68477;42.698;23.342;2024-03-08T01:29:47;3.42;;;1.90;;
79076;SDS011;68477;42.698;23.342;2024-03-08T01:32:13;3.25;;;2.03;;
79076;SDS011;68477;42.698;23.342;2024-03-08T01:34:39;2.72;;;1.95;;
79076;SDS011;68477;42.698;23.342;2024-03-08T01:37:05;2.90;;;1.83;;
79076;SDS011;68477;42.698;23.342;2024-03-08T01:39:31;3.05;;;2.13;;
79076;SDS011;68477;42.698;23.342;2024-03-08T01:41:57;5.05;;;2.22;;
79076;SDS011;68477;42.698;23.342;2024-03-08T01:44:23;3.22;;;1.98;;
79076;SDS011;68477;42.698;23.342;2024-03-08T01:46:49;3.20;;;2.08;;
79076;SDS011;68477;42.698;23.342;2024-03-08T01:49:17;3.83;;;2.40;;
79076;SDS011;68477;42.698;23.342;2024-03-08T01:51:43;3.20;;;2.17;;
79076;SDS011;68477;42.698;23.342;2024-03-08T01:54:09;3.42;;;2.10;;
79076;SDS011;68477;42.698;23.342;2024-03-08T01:56:36;7.90;;;2.30;;
79076;SDS011;68477;42.698;23.342;2024-03-08T01:59:03;2.95;;;2.08;;
79076;SDS011;68477;42.698;23.342;2024-03-08T02:01:32;2.70;;;2.10;;
79076;SDS011;68477;42.698;23.342;2024-03-08T02:03:59;3.25;;;2.22;;
79076;SDS011;68477;42.698;23.342;2024-03-08T02:06:26;3.95;;;2.35;;
79076;SDS011;68477;42.698;23.342;2024-03-08T02:08:52;3.53;;;2.47;;
79076;SDS011;68477;42.698;23.342;2024-03-08T02:11:18;3.80;;;2.17;;
79076;SDS011;68477;42.698;23.342;2024-03-08T02:13:45;3.40;;;2.20;;
79076;SDS011;68477;42.698;23.342;2024-03-08T02:16:11;5.03;;;2.10;;
79076;SDS011;68477;42.698;23.342;2024-03-08T02:18:37;4.13;;;2.10;;
79076;SDS011;68477;42.698;23.342;2024-03-08T02:21:05;4.22;;;2.20;;
79076;SDS011;68477;42.698;23.342;2024-03-08T02:23:32;3.58;;;2.42;;
79076;SDS011;68477;42.698;23.342;2024-03-08T02:25:58;5.68;;;2.40;;
79076;SDS011;68477;42.698;23.342;2024-03-08T02:28:24;3.85;;;2.30;;
79076;SDS011;68477;42.698;23.342;2024-03-08T02:30:50;3.50;;;2.17;;
79076;SDS011;68477;42.698;23.342;2024-03-08T02:33:20;2.90;;;2.17;;
79076;SDS011;68477;42.698;23.342;2024-03-08T02:35:45;3.05;;;2.00;;
79076;SDS011;68477;42.698;23.342;2024-03-08T02:38:12;2.90;;;1.88;;
79076;SDS011;68477;42.698;23.342;2024-03-08T02:40:38;2.67;;;1.70;;
79076;SDS011;68477;42.698;23.342;2024-03-08T02:43:04;3.20;;;1.65;;
79076;SDS011;68477;42.698;23.342;2024-03-08T02:45:30;2.58;;;1.80;;
79076;SDS011;68477;42.698;23.342;2024-03-08T02:47:56;2.58;;;1.67;;
79076;SDS011;68477;42.698;23.342;2024-03-08T02:50:21;2.78;;;1.77;;
79076;SDS011;68477;42.698;23.342;2024-03-08T02:52:47;2.38;;;1.60;;
79076;SDS011;68477;42.698;23.342;2024-03-08T02:55:13;2.67;;;1.83;;
79076;SDS011;68477;42.698;23.342;2024-03-08T02:57:42;3.30;;;1.60;;
79076;SDS011;68477;42.698;23.342;2024-03-08T03:00:12;2.45;;;1.63;;
79076;SDS011;68477;42.698;23.342;2024-03-08T03:02:38;2.83;;;1.77;;
79076;SDS011;68477;42.698;23.342;2024-03-08T03:05:04;3.10;;;1.73;;
79076;SDS011;68477;42.698;23.342;2024-03-08T03:07:34;2.45;;;1.60;;
79076;SDS011;68477;42.698;23.342;2024-03-08T03:10:00;2.90;;;1.70;;
79076;SDS011;68477;42.698;23.342;2024-03-08T03:12:27;5.93;;;1.80;;
79076;SDS011;68477;42.698;23.342;2024-03-08T03:14:52;2.88;;;1.83;;
79076;SDS011;68477;42.698;23.342;2024-03-08T03:17:18;2.03;;;1.30;;
79076;SDS011;68477;42.698;23.342;2024-03-08T03:19:45;2.97;;;1.77;;
79076;SDS011;68477;42.698;23.342;2024-03-08T03:22:11;2.72;;;1.70;;
79076;SDS011;68477;42.698;23.342;2024-03-08T03:24:37;2.45;;;1.60;;
79076;SDS011;68477;42.698;23.342;2024-03-08T03:27:07;2.20;;;1.58;;
79076;SDS011;68477;42.698;23.342;2024-03-08T03:29:42;1.95;;;1.42;;
79076;SDS011;68477;42.698;23.342;2024-03-08T03:32:11;2.25;;;1.40;;
79076;SDS011;68477;42.698;23.342;2024-03-08T03:34:38;2.47;;;1.73;;
79076;SDS011;68477;42.698;23.342;2024-03-08T03:37:04;3.92;;;1.67;;
79076;SDS011;68477;42.698;23.342;2024-03-08T03:39:33;2.53;;;1.58;;
79076;SDS011;68477;42.698;23.342;2024-03-08T03:41:59;3.35;;;1.65;;
79076;SDS011;68477;42.698;23.342;2024-03-08T03:44:27;3.15;;;1.83;;
79076;SDS011;68477;42.698;23.342;2024-03-08T03:46:53;4.72;;;1.70;;
79076;SDS011;68477;42.698;23.342;2024-03-08T03:49:19;3.75;;;1.70;;
79076;SDS011;68477;42.698;23.342;2024-03-08T03:51:45;2.92;;;1.60;;
79076;SDS011;68477;42.698;23.342;2024-03-08T03:54:11;2.17;;;1.52;;
79076;SDS011;68477;42.698;23.342;2024-03-08T03:56:37;3.88;;;2.10;;
79076;SDS011;68477;42.698;23.342;2024-03-08T03:59:04;2.80;;;1.60;;
79076;SDS011;68477;42.698;23.342;2024-03-08T04:01:31;3.20;;;2.00;;
79076;SDS011;68477;42.698;23.342;2024-03-08T04:03:57;2.97;;;2.05;;
79076;SDS011;68477;42.698;23.342;2024-03-08T04:06:23;4.18;;;2.10;;
79076;SDS011;68477;42.698;23.342;2024-03-08T04:08:49;3.28;;;2.08;;
79076;SDS011;68477;42.698;23.342;2024-03-08T04:11:14;3.42;;;2.00;;
79076;SDS011;68477;42.698;23.342;2024-03-08T04:13:42;2.78;;;1.73;;
79076;SDS011;68477;42.698;23.342;2024-03-08T04:16:07;2.83;;;2.10;;
79076;SDS011;68477;42.698;23.342;2024-03-08T04:18:34;3.45;;;2.25;;
79076;SDS011;68477;42.698;23.342;2024-03-08T04:21:06;4.32;;;2.15;;
79076;SDS011;68477;42.698;23.342;2024-03-08T04:23:34;3.33;;;2.47;;
79076;SDS011;68477;42.698;23.342;2024-03-08T04:26:02;4.10;;;2.47;;
79076;SDS011;68477;42.698;23.342;2024-03-08T04:28:31;4.60;;;3.30;;
79076;SDS011;68477;42.698;23.342;2024-03-08T04:30:57;5.93;;;3.50;;
79076;SDS011;68477;42.698;23.342;2024-03-08T04:33:25;6.18;;;3.53;;
79076;SDS011;68477;42.698;23.342;2024-03-08T04:35:51;6.80;;;2.92;;
79076;SDS011;68477;42.698;23.342;2024-03-08T04:38:17;3.95;;;2.78;;
79076;SDS011;68477;42.698;23.342;2024-03-08T04:40:42;5.00;;;2.83;;
79076;SDS011;68477;42.698;23.342;2024-03-08T04:43:08;5.43;;;3.45;;
79076;SDS011;68477;42.698;23.342;2024-03-08T04:45:35;13.95;;;3.83;;
79076;SDS011;68477;42.698;23.342;2024-03-08T04:48:01;6.13;;;3.83;;
79076;SDS011;68477;42.698;23.342;2024-03-08T04:50:27;5.25;;;3.70;;
79076;SDS011;68477;42.698;23.342;2024-03-08T04:52:56;5.70;;;3.58;;
79076;SDS011;68477;42.698;23.342;2024-03-08T04:55:21;5.88;;;3.83;;
79076;SDS011;68477;42.698;23.342;2024-03-08T04:57:48;5.30;;;3.33;;
79076;SDS011;68477;42.698;23.342;2024-03-08T05:00:13;8.32;;;4.43;;
79076;SDS011;68477;42.698;23.342;2024-03-08T05:02:40;7.25;;;4.00;;
79076;SDS011;68477;42.698;23.342;2024-03-08T05:05:07;6.10;;;3.85;;
79076;SDS011;68477;42.698;23.342;2024-03-08T05:07:34;7.43;;;4.93;;
79076;SDS011;68477;42.698;23.342;2024-03-08T05:10:00;6.43;;;3.97;;
79076;SDS011;68477;42.698;23.342;2024-03-08T05:12:27;6.15;;;3.83;;
79076;SDS011;68477;42.698;23.342;2024-03-08T05:14:53;7.07;;;3.92;;
79076;SDS011;68477;42.698;23.342;2024-03-08T05:17:18;6.65;;;3.97;;
79076;SDS011;68477;42.698;23.342;2024-03-08T05:19:44;5.45;;;3.53;;
79076;SDS011;68477;42.698;23.342;2024-03-08T05:22:10;5.32;;;3.67;;
79076;SDS011;68477;42.698;23.342;2024-03-08T05:24:35;6.75;;;3.70;;
79076;SDS011;68477;42.698;23.342;2024-03-08T05:27:01;8.73;;;3.72;;
79076;SDS011;68477;42.698;23.342;2024-03-08T05:29:27;6.78;;;3.30;;
79076;SDS011;68477;42.698;23.342;2024-03-08T05:31:54;8.18;;;4.40;;
79076;SDS011;68477;42.698;23.342;2024-03-08T05:34:20;7.07;;;3.47;;
79076;SDS011;68477;42.698;23.342;2024-03-08T05:36:47;6.63;;;4.50;;
79076;SDS011;68477;42.698;23.342;2024-03-08T05:39:14;6.57;;;3.70;;
79076;SDS011;68477;42.698;23.342;2024-03-08T05:41:41;6.85;;;4.32;;
79076;SDS011;68477;42.698;23.342;2024-03-08T05:44:07;6.57;;;4.20;;
79076;SDS011;68477;42.698;23.342;2024-03-08T05:46:33;7.25;;;4.45;;
79076;SDS011;68477;42.698;23.342;2024-03-08T05:48:59;6.85;;;4.30;;
79076;SDS011;68477;42.698;23.342;2024-03-08T05:51:25;8.38;;;4.38;;
79076;SDS011;68477;42.698;23.342;2024-03-08T05:53:53;7.35;;;4.50;;
79076;SDS011;68477;42.698;23.342;2024-03-08T05:56:20;6.85;;;4.35;;
79076;SDS011;68477;42.698;23.342;2024-03-08T05:58:48;7.85;;;4.68;;
79076;SDS011;68477;42.698;23.342;2024-03-08T06:01:15;7.30;;;4.68;;
79076;SDS011;68477;42.698;23.342;2024-03-08T06:03:41;7.65;;;4.65;;
79076;SDS011;68477;42.698;23.342;2024-03-08T06:11:04;9.55;;;4.85;;
79076;SDS011;68477;42.698;23.342;2024-03-08T06:13:31;7.72;;;4.63;;
79076;SDS011;68477;42.698;23.342;2024-03-08T06:15:56;8.80;;;5.03;;
79076;SDS011;68477;42.698;23.342;2024-03-08T06:18:22;12.50;;;5.00;;
79076;SDS011;68477;42.698;23.342;2024-03-08T06:20:47;8.60;;;4.82;;
79076;SDS011;68477;42.698;23.342;2024-03-08T06:23:13;6.25;;;4.70;;
79076;SDS011;68477;42.698;23.342;2024-03-08T06:25:45;9.60;;;4.90;;
79076;SDS011;68477;42.698;23.342;2024-03-08T06:28:11;8.25;;;4.68;;
79076;SDS011;68477;42.698;23.342;2024-03-08T06:30:36;7.30;;;4.20;;
79076;SDS011;68477;42.698;23.342;2024-03-08T06:33:02;9.00;;;5.07;;
79076;SDS011;68477;42.698;23.342;2024-03-08T06:35:28;7.65;;;4.65;;
79076;SDS011;68477;42.698;23.342;2024-03-08T06:37:53;5.43;;;3.47;;
79076;SDS011;68477;42.698;23.342;2024-03-08T06:40:19;5.07;;;3.70;;
79076;SDS011;68477;42.698;23.342;2024-03-08T06:42:44;6.50;;;4.30;;
79076;SDS011;68477;42.698;23.342;2024-03-08T06:45:10;5.78;;;4.05;;
79076;SDS011;68477;42.698;23.342;2024-03-08T06:47:37;6.22;;;3.92;;
79076;SDS011;68477;42.698;23.342;2024-03-08T06:50:06;9.88;;;4.65;;
79076;SDS011;68477;42.698;23.342;2024-03-08T06:52:33;6.65;;;3.90;;
79076;SDS011;68477;42.698;23.342;2024-03-08T06:54:59;6.93;;;4.13;;
79076;SDS011;68477;42.698;23.342;2024-03-08T06:57:26;6.72;;;3.70;;
79076;SDS011;68477;42.698;23.342;2024-03-08T06:59:52;6.53;;;3.90;;
79076;SDS011;68477;42.698;23.342;2024-03-08T07:02:17;7.22;;;4.25;;
79076;SDS011;68477;42.698;23.342;2024-03-08T07:04:43;7.05;;;4.07;;
79076;SDS011;68477;42.698;23.342;2024-03-08T07:07:09;6.30;;;4.13;;
79076;SDS011;68477;42.698;23.342;2024-03-08T07:09:35;8.88;;;4.13;;
79076;SDS011;68477;42.698;23.342;2024-03-08T07:12:01;8.18;;;4.85;;
79076;SDS011;68477;42.698;23.342;2024-03-08T07:14:27;5.97;;;3.30;;
79076;SDS011;68477;42.698;23.342;2024-03-08T07:16:53;8.05;;;4.20;;
79076;SDS011;68477;42.698;23.342;2024-03-08T07:19:19;7.70;;;4.30;;
79076;SDS011;68477;42.698;23.342;2024-03-08T07:21:46;7.60;;;4.85;;
79076;SDS011;68477;42.698;23.342;2024-03-08T07:24:12;8.20;;;4.35;;
79076;SDS011;68477;42.698;23.342;2024-03-08T07:27:13;7.43;;;4.55;;
79076;SDS011;68477;42.698;23.342;2024-03-08T07:29:39;6.70;;;3.47;;
79076;SDS011;68477;42.698;23.342;2024-03-08T07:32:05;8.02;;;4.13;;
79076;SDS011;68477;42.698;23.342;2024-03-08T07:34:50;9.05;;;4.70;;
79076;SDS011;68477;42.698;23.342;2024-03-08T07:37:19;9.45;;;4.43;;
79076;SDS011;68477;42.698;23.342;2024-03-08T07:39:45;8.05;;;4.63;;
79076;SDS011;68477;42.698;23.342;2024-03-08T07:42:11;9.57;;;4.72;;
79076;SDS011;68477;42.698;23.342;2024-03-08T07:44:37;8.15;;;5.10;;
79076;SDS011;68477;42.698;23.342;2024-03-08T07:47:03;8.15;;;5.10;;
79076;SDS011;68477;42.698;23.342;2024-03-08T07:49:29;8.95;;;5.45;;
79076;SDS011;68477;42.698;23.342;2024-03-08T07:51:55;8.88;;;4.32;;
79076;SDS011;68477;42.698;23.342;2024-03-08T07:54:21;7.05;;;4.47;;
79076;SDS011;68477;42.698;23.342;2024-03-08T07:56:47;8.77;;;4.53;;
79076;SDS011;68477;42.698;23.342;2024-03-08T07:59:12;8.32;;;4.20;;
79076;SDS011;68477;42.698;23.342;2024-03-08T08:01:38;8.48;;;5.20;;
79076;SDS011;68477;42.698;23.342;2024-03-08T08:04:03;9.63;;;5.82;;
79076;SDS011;68477;42.698;23.342;2024-03-08T08:06:30;10.02;;;6.18;;
79076;SDS011;68477;42.698;23.342;2024-03-08T08:08:58;6.10;;;3.92;;
79076;SDS011;68477;42.698;23.342;2024-03-08T08:11:25;8.38;;;4.90;;
79076;SDS011;68477;42.698;23.342;2024-03-08T08:13:53;5.93;;;3.92;;
79076;SDS011;68477;42.698;23.342;2024-03-08T08:16:20;5.53;;;3.38;;
79076;SDS011;68477;42.698;23.342;2024-03-08T08:18:45;5.47;;;3.50;;
79076;SDS011;68477;42.698;23.342;2024-03-08T08:21:14;7.25;;;4.85;;
79076;SDS011;68477;42.698;23.342;2024-03-08T08:23:40;11.27;;;7.15;;
79076;SDS011;68477;42.698;23.342;2024-03-08T08:26:05;7.93;;;5.35;;
79076;SDS011;68477;42.698;23.342;2024-03-08T08:28:32;7.70;;;5.40;;
79076;SDS011;68477;42.698;23.342;2024-03-08T08:30:58;8.50;;;6.88;;
79076;SDS011;68477;42.698;23.342;2024-03-08T08:33:24;13.25;;;8.20;;
79076;SDS011;68477;42.698;23.342;2024-03-08T08:35:51;10.40;;;6.85;;
79076;SDS011;68477;42.698;23.342;2024-03-08T08:38:19;8.50;;;5.38;;
79076;SDS011;68477;42.698;23.342;2024-03-08T08:40:45;7.93;;;5.57;;
79076;SDS011;68477;42.698;23.342;2024-03-08T08:43:12;13.00;;;6.03;;
79076;SDS011;68477;42.698;23.342;2024-03-08T08:45:38;7.55;;;5.28;;
79076;SDS011;68477;42.698;23.342;2024-03-08T08:48:04;8.30;;;5.63;;
79076;SDS011;68477;42.698;23.342;2024-03-08T08:50:30;7.88;;;4.97;;
79076;SDS011;68477;42.698;23.342;2024-03-08T08:52:56;13.35;;;5.93;;
79076;SDS011;68477;42.698;23.342;2024-03-08T08:55:21;7.82;;;4.78;;
79076;SDS011;68477;42.698;23.342;2024-03-08T08:57:50;3.80;;;2.97;;
79076;SDS011;68477;42.698;23.342;2024-03-08T09:00:19;7.10;;;3.78;;
79076;SDS011;68477;42.698;23.342;2024-03-08T09:02:45;5.47;;;3.45;;
79076;SDS011;68477;42.698;23.342;2024-03-08T09:05:12;8.30;;;3.65;;
79076;SDS011;68477;42.698;23.342;2024-03-08T09:07:39;3.63;;;2.47;;
79076;SDS011;68477;42.698;23.342;2024-03-08T09:10:05;7.72;;;3.20;;
79076;SDS011;68477;42.698;23.342;2024-03-08T09:12:31;5.70;;;3.25;;
79076;SDS011;68477;42.698;23.342;2024-03-08T09:14:58;6.13;;;3.78;;
79076;SDS011;68477;42.698;23.342;2024-03-08T09:17:24;7.13;;;4.03;;
79076;SDS011;68477;42.698;23.342;2024-03-08T09:19:51;13.93;;;5.07;;
79076;SDS011;68477;42.698;23.342;2024-03-08T09:22:17;4.22;;;3.03;;
79076;SDS011;68477;42.698;23.342;2024-03-08T09:24:43;5.40;;;2.60;;
79076;SDS011;68477;42.698;23.342;2024-03-08T09:27:08;4.38;;;2.90;;
79076;SDS011;68477;42.698;23.342;2024-03-08T09:29:35;5.05;;;2.70;;
79076;SDS011;68477;42.698;23.342;2024-03-08T09:32:00;4.15;;;2.85;;
79076;SDS011;68477;42.698;23.342;2024-03-08T09:34:26;4.47;;;3.10;;
79076;SDS011;68477;42.698;23.342;2024-03-08T09:36:52;5.03;;;3.55;;
79076;SDS011;68477;42.698;23.342;2024-03-08T09:39:18;7.38;;;4.85;;
79076;SDS011;68477;42.698;23.342;2024-03-08T09:41:46;7.78;;;4.53;;
79076;SDS011;68477;42.698;23.342;2024-03-08T09:44:15;9.23;;;4.90;;
79076;SDS011;68477;42.698;23.342;2024-03-08T09:46:41;9.10;;;5.15;;
79076;SDS011;68477;42.698;23.342;2024-03-08T09:49:07;7.35;;;4.05;;
79076;SDS011;68477;42.698;23.342;2024-03-08T09:51:35;27.70;;;12.13;;
79076;SDS011;68477;42.698;23.342;2024-03-08T09:54:05;16.60;;;6.32;;
79076;SDS011;68477;42.698;23.342;2024-03-08T09:56:37;21.25;;;8.98;;
79076;SDS011;68477;42.698;23.342;2024-03-08T09:59:06;15.40;;;7.32;;
79076;SDS011;68477;42.698;23.342;2024-03-08T10:02:12;14.75;;;6.20;;
79076;SDS011;68477;42.698;23.342;2024-03-08T10:04:40;19.73;;;7.40;;
79076;SDS011;68477;42.698;23.342;2024-03-08T10:07:11;12.68;;;6.90;;
79076;SDS011;68477;42.698;23.342;2024-03-08T10:09:37;11.70;;;4.85;;
79076;SDS011;68477;42.698;23.342;2024-03-08T10:12:04;28.75;;;10.32;;
79076;SDS011;68477;42.698;23.342;2024-03-08T10:14:30;3.95;;;2.70;;
79076;SDS011;68477;42.698;23.342;2024-03-08T10:16:57;9.02;;;2.88;;
79076;SDS011;68477;42.698;23.342;2024-03-08T10:19:26;4.50;;;2.70;;
79076;SDS011;68477;42.698;23.342;2024-03-08T10:21:52;4.60;;;2.70;;
79076;SDS011;68477;42.698;23.342;2024-03-08T10:27:08;4.05;;;2.42;;
79076;SDS011;68477;42.698;23.342;2024-03-08T10:29:33;3.15;;;2.10;;
79076;SDS011;68477;42.698;23.342;2024-03-08T10:31:59;6.20;;;2.95;;
79076;SDS011;68477;42.698;23.342;2024-03-08T10:34:24;8.23;;;2.83;;
79076;SDS011;68477;42.698;23.342;2024-03-08T10:36:50;3.90;;;2.78;;
79076;SDS011;68477;42.698;23.342;2024-03-08T10:41:52;5.03;;;2.92;;
79076;SDS011;68477;42.698;23.342;2024-03-08T10:47:15;3.65;;;2.33;;
79076;SDS011;68477;42.698;23.342;2024-03-08T10:50:05;7.45;;;4.95;;
79076;SDS011;68477;42.698;23.342;2024-03-08T10:52:35;6.90;;;4.20;;
79076;SDS011;68477;42.698;23.342;2024-03-08T10:55:02;4.45;;;2.58;;
79076;SDS011;68477;42.698;23.342;2024-03-08T10:57:27;5.18;;;2.40;;
79076;SDS011;68477;42.698;23.342;2024-03-08T10:59:53;4.55;;;2.45;;
79076;SDS011;68477;42.698;23.342;2024-03-08T11:02:20;5.35;;;2.15;;
79076;SDS011;68477;42.698;23.342;2024-03-08T11:04:46;3.13;;;2.15;;
79076;SDS011;68477;42.698;23.342;2024-03-08T11:07:15;2.72;;;1.70;;
79076;SDS011;68477;42.698;23.342;2024-03-08T11:09:46;2.85;;;2.05;;
79076;SDS011;68477;42.698;23.342;2024-03-08T11:15:10;3.60;;;2.20;;
79076;SDS011;68477;42.698;23.342;2024-03-08T11:20:13;4.07;;;1.90;;
79076;SDS011;68477;42.698;23.342;2024-03-08T11:22:41;6.15;;;1.90;;
79076;SDS011;68477;42.698;23.342;2024-03-08T11:30:41;5.03;;;2.00;;
79076;SDS011;68477;42.698;23.342;2024-03-08T11:33:11;4.65;;;1.60;;
79076;SDS011;68477;42.698;23.342;2024-03-08T11:35:37;3.95;;;1.70;;
79076;SDS011;68477;42.698;23.342;2024-03-08T11:38:04;3.25;;;1.95;;
79076;SDS011;68477;42.698;23.342;2024-03-08T11:40:30;3.80;;;1.52;;
79076;SDS011;68477;42.698;23.342;2024-03-08T11:45:24;5.05;;;2.50;;
79076;SDS011;68477;42.698;23.342;2024-03-08T11:47:50;3.10;;;2.03;;
79076;SDS011;68477;42.698;23.342;2024-03-08T11:50:15;7.07;;;2.10;;
79076;SDS011;68477;42.698;23.342;2024-03-08T11:52:41;2.35;;;1.42;;
79076;SDS011;68477;42.698;23.342;2024-03-08T11:55:08;9.88;;;2.35;;
79076;SDS011;68477;42.698;23.342;2024-03-08T11:57:34;3.15;;;2.20;;
79076;SDS011;68477;42.698;23.342;2024-03-08T12:00:01;3.05;;;2.10;;
79076;SDS011;68477;42.698;23.342;2024-03-08T12:02:32;5.22;;;3.53;;
79076;SDS011;68477;42.698;23.342;2024-03-08T12:05:04;4.00;;;2.03;;
79076;SDS011;68477;42.698;23.342;2024-03-08T12:07:35;3.10;;;1.90;;
79076;SDS011;68477;42.698;23.342;2024-03-08T12:10:14;2.90;;;1.88;;
79076;SDS011;68477;42.698;23.342;2024-03-08T12:12:47;3.80;;;2.28;;
79076;SDS011;68477;42.698;23.342;2024-03-08T12:15:15;3.28;;;2.10;;
79076;SDS011;68477;42.698;23.342;2024-03-08T12:17:41;3.20;;;1.75;;
79076;SDS011;68477;42.698;23.342;2024-03-08T12:20:20;5.75;;;1.73;;
79076;SDS011;68477;42.698;23.342;2024-03-08T12:22:48;2.88;;;1.88;;
79076;SDS011;68477;42.698;23.342;2024-03-08T12:25:14;2.88;;;1.90;;
79076;SDS011;68477;42.698;23.342;2024-03-08T12:27:41;2.65;;;1.98;;
79076;SDS011;68477;42.698;23.342;2024-03-08T12:30:18;3.88;;;2.42;;
79076;SDS011;68477;42.698;23.342;2024-03-08T12:32:54;5.95;;;2.40;;
79076;SDS011;68477;42.698;23.342;2024-03-08T12:35:25;6.05;;;3.17;;
79076;SDS011;68477;42.698;23.342;2024-03-08T12:37:52;2.40;;;1.63;;
79076;SDS011;68477;42.698;23.342;2024-03-08T12:40:19;3.00;;;2.17;;
79076;SDS011;68477;42.698;23.342;2024-03-08T12:42:55;4.15;;;2.83;;
79076;SDS011;68477;42.698;23.342;2024-03-08T12:45:21;2.92;;;1.95;;
79076;SDS011;68477;42.698;23.342;2024-03-08T12:47:53;2.85;;;1.90;;
79076;SDS011;68477;42.698;23.342;2024-03-08T12:50:23;3.47;;;2.13;;
79076;SDS011;68477;42.698;23.342;2024-03-08T12:52:53;2.78;;;1.85;;
79076;SDS011;68477;42.698;23.342;2024-03-08T12:55:19;3.35;;;2.00;;
79076;SDS011;68477;42.698;23.342;2024-03-08T12:57:44;2.97;;;2.10;;
79076;SDS011;68477;42.698;23.342;2024-03-08T13:00:10;3.22;;;1.90;;
79076;SDS011;68477;42.698;23.342;2024-03-08T13:02:45;3.58;;;1.80;;
79076;SDS011;68477;42.698;23.342;2024-03-08T13:05:11;4.43;;;2.28;;
79076;SDS011;68477;42.698;23.342;2024-03-08T13:07:39;4.00;;;2.13;;
79076;SDS011;68477;42.698;23.342;2024-03-08T13:10:14;4.60;;;1.80;;
79076;SDS011;68477;42.698;23.342;2024-03-08T13:12:43;5.32;;;1.58;;
79076;SDS011;68477;42.698;23.342;2024-03-08T13:15:09;7.10;;;2.45;;
79076;SDS011;68477;42.698;23.342;2024-03-08T13:17:40;2.33;;;1.67;;
79076;SDS011;68477;42.698;23.342;2024-03-08T13:20:06;3.78;;;1.92;;
79076;SDS011;68477;42.698;23.342;2024-03-08T13:22:33;4.57;;;2.80;;
79076;SDS011;68477;42.698;23.342;2024-03-08T13:24:58;5.82;;;2.53;;
79076;SDS011;68477;42.698;23.342;2024-03-08T13:27:26;3.00;;;2.20;;
79076;SDS011;68477;42.698;23.342;2024-03-08T13:29:53;3.40;;;2.40;;
79076;SDS011;68477;42.698;23.342;2024-03-08T13:32:19;4.32;;;2.10;;
79076;SDS011;68477;42.698;23.342;2024-03-08T13:34:47;3.17;;;1.80;;
79076;SDS011;68477;42.698;23.342;2024-03-08T13:37:16;2.88;;;2.00;;
79076;SDS011;68477;42.698;23.342;2024-03-08T13:39:42;4.28;;;2.35;;
79076;SDS011;68477;42.698;23.342;2024-03-08T13:42:11;2.78;;;1.90;;
79076;SDS011;68477;42.698;23.342;2024-03-08T13:44:47;4.85;;;1.70;;
79076;SDS011;68477;42.698;23.342;2024-03-08T13:47:14;5.45;;;1.95;;
79076;SDS011;68477;42.698;23.342;2024-03-08T13:49:41;7.45;;;1.90;;
79076;SDS011;68477;42.698;23.342;2024-03-08T13:52:08;4.70;;;2.22;;
79076;SDS011;68477;42.698;23.342;2024-03-08T13:54:34;3.83;;;2.50;;
79076;SDS011;68477;42.698;23.342;2024-03-08T13:57:00;4.05;;;2.63;;
79076;SDS011;68477;42.698;23.342;2024-03-08T13:59:28;3.40;;;1.95;;
79076;SDS011;68477;42.698;23.342;2024-03-08T14:01:55;3.05;;;2.08;;
79076;SDS011;68477;42.698;23.342;2024-03-08T14:04:22;3.55;;;2.30;;
79076;SDS011;68477;42.698;23.342;2024-03-08T14:06:49;4.22;;;2.00;;
79076;SDS011;68477;42.698;23.342;2024-03-08T14:09:15;5.95;;;2.90;;
79076;SDS011;68477;42.698;23.342;2024-03-08T14:11:45;5.15;;;3.00;;
79076;SDS011;68477;42.698;23.342;2024-03-08T14:14:11;4.32;;;2.40;;
79076;SDS011;68477;42.698;23.342;2024-03-08T14:16:39;5.47;;;2.63;;
79076;SDS011;68477;42.698;23.342;2024-03-08T14:19:05;4.38;;;2.65;;
79076;SDS011;68477;42.698;23.342;2024-03-08T14:21:31;5.53;;;2.45;;
79076;SDS011;68477;42.698;23.342;2024-03-08T14:23:57;6.07;;;2.88;;
79076;SDS011;68477;42.698;23.342;2024-03-08T14:26:23;4.13;;;2.60;;
79076;SDS011;68477;42.698;23.342;2024-03-08T14:28:48;4.55;;;2.85;;
79076;SDS011;68477;42.698;23.342;2024-03-08T14:31:16;4.97;;;2.90;;
79076;SDS011;68477;42.698;23.342;2024-03-08T14:33:46;3.63;;;2.70;;
79076;SDS011;68477;42.698;23.342;2024-03-08T14:36:15;5.88;;;3.25;;
79076;SDS011;68477;42.698;23.342;2024-03-08T14:38:44;6.40;;;3.50;;
79076;SDS011;68477;42.698;23.342;2024-03-08T14:41:12;5.50;;;2.90;;
79076;SDS011;68477;42.698;23.342;2024-03-08T14:43:42;5.72;;;3.63;;
79076;SDS011;68477;42.698;23.342;2024-03-08T14:46:10;17.13;;;4.70;;
79076;SDS011;68477;42.698;23.342;2024-03-08T14:48:42;6.53;;;3.22;;
79076;SDS011;68477;42.698;23.342;2024-03-08T14:51:08;5.80;;;3.28;;
79076;SDS011;68477;42.698;23.342;2024-03-08T14:53:36;9.95;;;3.58;;
79076;SDS011;68477;42.698;23.342;2024-03-08T14:56:06;6.13;;;3.50;;
79076;SDS011;68477;42.698;23.342;2024-03-08T14:58:33;6.65;;;3.40;;
79076;SDS011;68477;42.698;23.342;2024-03-08T15:00:58;11.90;;;4.18;;